Time;durP1;ratioP1;P1;durP2;ratioP2;P2;SDS_P1;SDS_P2;PMS_P1;PMS_P2;Temp;Humidity;BMP_temperature;BMP_pressure;BME280_temperature;BME280_humidity;BME280_pressure;Samples;Min_cycle;Max_cycle;Signal;HPM_P1;HPM_P2
2023/08/31 00:00:06;;;;;;;2.55;0.90;;;;;;;18.23;84.81;99775.97;2065955;28;20047;-74
2023/08/31 00:01:08;;;;;;;2.08;1.10;;;;;;;18.24;84.90;99776.75;2073374;28;20182;-74
2023/08/31 00:02:14;;;;;;;2.03;1.00;;;;;;;18.24;84.76;99777.56;2065374;28;20031;-74
2023/08/31 00:03:16;;;;;;;1.33;1.00;;;;;;;18.23;84.91;99767.03;2065649;28;20858;-74
2023/08/31 00:04:18;;;;;;;2.00;1.00;;;;;;;18.22;84.75;99771.69;2065055;28;20863;-73
2023/08/31 00:05:19;;;;;;;2.70;1.00;;;;;;;18.23;84.72;99773.25;2065250;28;20960;-73
2023/08/31 00:06:21;;;;;;;1.15;0.90;;;;;;;18.24;84.94;99780.28;2069535;28;20031;-73
2023/08/31 00:07:42;;;;;;;2.15;1.13;;;;;;;18.24;84.82;99779.47;2073100;28;20034;-73
2023/08/31 00:08:45;;;;;;;2.95;1.00;;;;;;;18.23;84.95;99777.91;2080529;28;20045;-73
2023/08/31 00:09:49;;;;;;;2.75;0.90;;;;;;;18.22;84.94;99773.59;2079940;28;20754;-74
2023/08/31 00:10:58;;;;;;;1.20;0.80;;;;;;;18.22;84.87;99771.69;2082684;28;20793;-73
2023/08/31 00:12:01;;;;;;;2.17;0.88;;;;;;;18.20;85.01;99768.50;2082872;28;20026;-73
2023/08/31 00:13:03;;;;;;;4.00;1.70;;;;;;;18.20;84.94;99768.50;2074470;28;20132;-74
2023/08/31 00:14:05;;;;;;;2.65;1.08;;;;;;;18.18;84.89;99770.78;2066461;28;20034;-74
2023/08/31 00:15:09;;;;;;;1.80;0.88;;;;;;;18.20;84.95;99767.72;2074863;28;20030;-74
2023/08/31 00:16:12;;;;;;;2.33;1.00;;;;;;;18.19;84.99;99768.84;2083269;28;20239;-74
2023/08/31 00:17:14;;;;;;;2.28;1.35;;;;;;;18.18;85.06;99765.34;2090488;28;20104;-74
2023/08/31 00:18:20;;;;;;;3.30;1.20;;;;;;;18.18;85.00;99762.63;2083325;28;20857;-74
2023/08/31 00:19:22;;;;;;;1.77;1.20;;;;;;;18.16;84.98;99767.63;2082378;28;20877;-73
2023/08/31 00:20:24;;;;;;;1.30;0.80;;;;;;;18.17;85.15;99769.22;2082971;28;20037;-73
2023/08/31 00:21:25;;;;;;;0.80;0.80;;;;;;;18.16;85.13;99770.34;2074610;28;20165;-74
2023/08/31 00:22:28;;;;;;;1.00;0.90;;;;;;;18.16;85.13;99774.97;2066840;28;20790;-74
2023/08/31 00:23:29;;;;;;;2.00;1.17;;;;;;;18.15;85.12;99766.03;2080245;28;20037;-74
2023/08/31 00:24:36;;;;;;;4.88;0.90;;;;;;;18.15;85.03;99771.47;2082921;28;21046;-74
2023/08/31 00:25:38;;;;;;;1.45;0.70;;;;;;;18.14;85.07;99769.91;2073954;28;20033;-74
2023/08/31 00:26:43;;;;;;;1.40;0.90;;;;;;;18.14;85.10;99772.63;2074829;28;20850;-73
2023/08/31 00:27:47;;;;;;;1.58;0.90;;;;;;;18.14;85.10;99769.91;2066853;28;20039;-73
2023/08/31 00:28:50;;;;;;;1.27;0.95;;;;;;;18.15;85.14;99768.75;2080342;28;20177;-74
2023/08/31 00:29:53;;;;;;;2.03;0.98;;;;;;;18.15;85.22;99771.47;2082230;28;20034;-73
2023/08/31 00:30:55;;;;;;;1.70;1.00;;;;;;;18.14;85.12;99769.91;2074615;28;20043;-73
2023/08/31 00:31:58;;;;;;;1.27;0.85;;;;;;;18.16;85.27;99773.06;2074011;28;20068;-73
2023/08/31 00:33:01;;;;;;;2.17;1.20;;;;;;;18.17;85.18;99774.66;2075239;28;20217;-73
2023/08/31 00:34:07;;;;;;;1.50;0.80;;;;;;;18.16;85.13;99770.34;2074179;28;20034;-74
2023/08/31 00:35:10;;;;;;;1.70;1.00;;;;;;;18.16;85.28;99772.25;2075083;28;20882;-73
2023/08/31 00:36:11;;;;;;;1.88;0.90;;;;;;;18.15;85.11;99771.47;2090591;28;20022;-74
2023/08/31 00:37:13;;;;;;;3.25;1.20;;;;;;;18.14;85.27;99769.91;2082679;28;20149;-74
2023/08/31 00:38:14;;;;;;;1.52;1.00;;;;;;;18.12;85.30;99768.66;2066144;28;20886;-74
2023/08/31 00:39:17;;;;;;;1.80;1.00;;;;;;;18.12;85.21;99774.09;2066148;28;20039;-74
2023/08/31 00:40:19;;;;;;;2.95;1.20;;;;;;;18.11;85.36;99777.97;2066101;28;20034;-74
2023/08/31 00:41:25;;;;;;;1.60;0.95;;;;;;;18.11;85.37;99773.31;2067831;28;20038;-74
2023/08/31 00:42:30;;;;;;;1.63;1.15;;;;;;;18.11;85.40;99777.97;2082525;28;20038;-74
2023/08/31 00:43:32;;;;;;;2.63;1.00;;;;;;;18.10;85.32;99773.69;2080413;28;20148;-74
2023/08/31 00:44:36;;;;;;;1.98;1.20;;;;;;;18.11;85.32;99772.53;2074142;28;20046;-74
2023/08/31 00:45:40;;;;;;;3.83;1.15;;;;;;;18.08;85.37;99776.72;2075245;28;20035;-74
2023/08/31 00:46:50;;;;;;;4.13;0.93;;;;;;;18.07;85.46;99764.28;2075140;28;20026;-74
2023/08/31 00:47:52;;;;;;;3.58;1.40;;;;;;;18.08;85.37;99767.78;2059131;28;20217;-74
2023/08/31 00:48:54;;;;;;;2.95;1.73;;;;;;;18.08;85.43;99770.50;2057775;28;20059;-73
2023/08/31 00:49:56;;;;;;;2.65;1.20;;;;;;;18.07;85.42;99775.16;2066902;28;20035;-74
2023/08/31 00:51:00;;;;;;;0.90;0.90;;;;;;;18.07;85.50;99780.59;2082361;28;20453;-74
2023/08/31 00:52:04;;;;;;;2.60;1.00;;;;;;;18.07;85.55;99780.59;2072356;28;20153;-74
2023/08/31 00:53:06;;;;;;;2.78;1.00;;;;;;;18.06;85.48;99782.53;2082871;28;20884;-74
2023/08/31 00:54:09;;;;;;;1.08;0.90;;;;;;;18.06;85.40;99768.13;2074319;28;20842;-74
2023/08/31 00:55:13;;;;;;;2.53;1.00;;;;;;;18.06;85.38;99784.44;2065925;28;20865;-73
2023/08/31 00:56:18;;;;;;;1.45;1.00;;;;;;;18.05;85.53;99777.44;2066686;28;20877;-73
2023/08/31 00:57:28;;;;;;;1.33;0.90;;;;;;;18.03;85.59;99777.78;2073344;28;20081;-73
2023/08/31 00:58:33;;;;;;;1.58;0.98;;;;;;;18.03;85.79;99785.94;2083384;28;20033;-74
2023/08/31 00:59:34;;;;;;;2.40;1.00;;;;;;;18.02;85.49;99776.19;2081669;28;20983;-74
2023/08/31 01:00:58;;;;;;;3.47;1.13;;;;;;;18.02;85.40;99789.78;2066941;28;20019;-74
2023/08/31 01:02:05;;;;;;;4.55;1.65;;;;;;;18.02;85.49;99783.56;2068804;28;20878;-74
2023/08/31 01:03:16;;;;;;;5.13;1.40;;;;;;;18.01;85.45;99785.50;2059563;28;20043;-74
2023/08/31 01:04:33;;;;;;;1.92;1.20;;;;;;;18.00;85.63;99785.81;2077380;28;20041;-74
2023/08/31 01:05:58;;;;;;;1.50;1.00;;;;;;;17.98;85.61;99786.19;2080901;28;20861;-75
2023/08/31 01:07:22;;;;;;;5.15;1.27;;;;;;;17.97;85.53;99786.53;2075828;28;20042;-74
2023/08/31 01:08:38;;;;;;;2.80;1.10;;;;;;;17.96;85.72;99787.66;2077175;28;20081;-74
2023/08/31 01:10:09;;;;;;;4.75;1.27;;;;;;;17.96;85.64;99779.50;2076700;28;20126;-74
2023/08/31 01:11:18;;;;;;;2.55;1.23;;;;;;;17.96;85.74;99783.00;2086416;28;20992;-75
2023/08/31 01:12:29;;;;;;;1.42;1.00;;;;;;;17.95;85.81;99783.38;2082507;28;20038;-74
2023/08/31 01:13:38;;;;;;;1.88;1.20;;;;;;;17.95;85.73;99776.00;2084220;28;20022;-74
2023/08/31 01:14:43;;;;;;;3.00;1.40;;;;;;;17.95;85.62;99780.66;2066380;28;20081;-74
2023/08/31 01:15:48;;;;;;;1.25;1.10;;;;;;;17.94;85.74;99773.66;2060325;28;20061;-74
2023/08/31 01:16:50;;;;;;;1.40;1.00;;;;;;;17.95;85.81;99776.00;2066647;28;20046;-74
2023/08/31 01:17:56;;;;;;;3.00;1.30;;;;;;;17.97;85.68;99783.81;2066332;28;20038;-74
2023/08/31 01:18:59;;;;;;;1.75;1.13;;;;;;;17.97;85.70;99781.09;2066655;28;20043;-73
2023/08/31 01:20:03;;;;;;;1.60;1.20;;;;;;;17.96;85.68;99774.06;2066643;28;20038;-74
2023/08/31 01:21:38;;;;;;;4.05;1.20;;;;;;;17.94;85.64;99774.44;2074809;28;20168;-74
2023/08/31 01:23:03;;;;;;;2.55;1.63;;;;;;;17.92;85.75;99784.84;2079100;28;20153;-74
2023/08/31 01:24:10;;;;;;;2.40;1.48;;;;;;;17.89;85.72;99780.09;2074780;28;20061;-74
2023/08/31 01:25:17;;;;;;;3.22;1.77;;;;;;;17.90;85.70;99786.34;2078134;28;20041;-74
2023/08/31 01:26:22;;;;;;;2.72;1.60;;;;;;;17.90;85.79;99778.19;2066158;28;20047;-74
2023/08/31 01:27:26;;;;;;;1.80;1.30;;;;;;;17.89;85.80;99782.03;2068112;28;20027;-74
2023/08/31 01:28:28;;;;;;;3.88;2.03;;;;;;;17.90;85.73;99787.13;2074412;28;20833;-73
2023/08/31 01:29:32;;;;;;;4.07;1.58;;;;;;;17.91;85.77;99782.50;2074284;28;20053;-72
2023/08/31 01:30:34;;;;;;;2.80;1.45;;;;;;;17.91;85.73;99777.06;2066756;28;20061;-74
2023/08/31 01:31:44;;;;;;;1.83;1.23;;;;;;;17.91;85.74;99782.50;2074216;28;20090;-73
2023/08/31 01:32:46;;;;;;;3.05;1.20;;;;;;;17.91;85.72;99787.94;2082248;28;20097;-74
2023/08/31 01:33:48;;;;;;;3.00;1.50;;;;;;;17.91;85.84;99793.38;2082724;28;20040;-73
2023/08/31 01:34:51;;;;;;;1.52;1.42;;;;;;;17.91;85.70;99787.94;2090518;28;20034;-74
2023/08/31 01:35:59;;;;;;;3.00;1.20;;;;;;;17.91;85.78;99787.94;2082791;28;20177;-74
2023/08/31 01:37:04;;;;;;;1.88;1.05;;;;;;;17.90;85.62;99786.34;2066378;28;20870;-73
2023/08/31 01:38:08;;;;;;;2.88;1.25;;;;;;;17.90;85.66;99783.63;2059037;28;20814;-74
2023/08/31 01:39:25;;;;;;;1.50;1.20;;;;;;;17.90;85.76;99780.88;2075574;28;20061;-74
2023/08/31 01:41:00;;;;;;;4.47;1.23;;;;;;;17.89;85.75;99782.81;2074126;28;20037;-74
2023/08/31 01:42:04;;;;;;;1.75;1.30;;;;;;;17.89;85.75;99780.09;2073711;28;20777;-74
2023/08/31 01:43:10;;;;;;;3.10;1.38;;;;;;;17.88;85.92;99783.19;2082910;28;20048;-74
2023/08/31 01:44:16;;;;;;;2.25;1.38;;;;;;;17.88;85.72;99780.47;2065625;28;20849;-74
2023/08/31 01:45:23;;;;;;;1.45;1.35;;;;;;;17.87;85.70;99774.22;2077209;28;20091;-74
2023/08/31 01:46:30;;;;;;;3.60;1.50;;;;;;;17.86;85.81;99780.81;2096941;28;20751;-75
2023/08/31 01:47:33;;;;;;;2.80;1.50;;;;;;;17.85;85.86;99773.78;2073925;28;21264;-74
2023/08/31 01:48:40;;;;;;;2.22;1.42;;;;;;;17.85;85.98;99778.44;2058679;28;20166;-74
2023/08/31 01:49:43;;;;;;;3.38;1.35;;;;;;;17.82;85.78;99775.25;2067935;28;20042;-74
2023/08/31 01:50:45;;;;;;;1.65;1.20;;;;;;;17.84;85.87;99783.06;2082772;28;20034;-74
2023/08/31 01:51:48;;;;;;;3.83;1.50;;;;;;;17.85;85.91;99778.44;2068288;28;20037;-73
2023/08/31 01:52:53;;;;;;;1.73;1.30;;;;;;;17.85;85.81;99783.88;2050382;28;20036;-74
2023/08/31 01:53:55;;;;;;;2.40;1.40;;;;;;;17.87;85.94;99778.88;2066650;28;20038;-74
2023/08/31 01:54:59;;;;;;;3.35;1.90;;;;;;;17.88;85.95;99780.47;2057792;28;20039;-74
2023/08/31 01:56:04;;;;;;;2.13;1.40;;;;;;;17.88;85.95;99775.03;2073904;28;20054;-74
2023/08/31 01:57:06;;;;;;;3.28;1.70;;;;;;;17.88;85.80;99777.75;2083220;28;21255;-74
2023/08/31 01:58:18;;;;;;;2.47;1.30;;;;;;;17.88;86.07;99775.03;2072301;28;20041;-74
2023/08/31 01:59:21;;;;;;;1.55;1.10;;;;;;;17.87;85.79;99781.59;2048695;28;20819;-74
2023/08/31 02:00:25;;;;;;;2.53;1.10;;;;;;;17.87;86.04;99781.59;2067074;28;20801;-74
2023/08/31 02:01:29;;;;;;;1.20;1.10;;;;;;;17.86;85.79;99785.44;2074250;28;20904;-74
2023/08/31 02:02:31;;;;;;;1.10;1.00;;;;;;;17.87;85.81;99781.59;2074065;28;20209;-74
2023/08/31 02:03:32;;;;;;;1.10;1.00;;;;;;;17.86;85.85;99782.72;2065831;28;20778;-74
2023/08/31 02:04:37;;;;;;;3.33;1.40;;;;;;;17.85;85.92;99781.16;2066465;28;20039;-74
2023/08/31 02:05:43;;;;;;;1.30;1.20;;;;;;;17.83;85.93;99782.28;2066041;28;20781;-74
2023/08/31 02:06:45;;;;;;;3.30;1.20;;;;;;;17.80;85.88;99777.53;2074450;28;20160;-74
2023/08/31 02:07:47;;;;;;;1.15;1.00;;;;;;;17.81;86.08;99772.88;2073818;28;20136;-74
2023/08/31 02:08:48;;;;;;;1.95;1.30;;;;;;;17.81;86.11;99773.69;2071498;28;20034;-74
2023/08/31 02:09:53;;;;;;;1.25;1.00;;;;;;;17.81;86.12;99773.69;2074648;28;20908;-73
2023/08/31 02:10:54;;;;;;;1.65;1.10;;;;;;;17.81;86.11;99770.16;2082156;28;20891;-73
2023/08/31 02:11:58;;;;;;;1.45;0.90;;;;;;;17.80;86.17;99772.09;2082374;28;20036;-72
2023/08/31 02:13:04;;;;;;;3.78;1.40;;;;;;;17.81;86.18;99770.97;2073821;28;20038;-72
2023/08/31 02:14:05;;;;;;;1.30;1.05;;;;;;;17.81;86.20;99767.44;2066867;28;20034;-72
2023/08/31 02:15:09;;;;;;;1.55;0.90;;;;;;;17.81;86.14;99770.97;2081779;28;20077;-72
2023/08/31 02:16:12;;;;;;;1.42;1.05;;;;;;;17.81;86.30;99773.69;2082190;28;20077;-72
2023/08/31 02:17:14;;;;;;;1.10;0.95;;;;;;;17.82;86.17;99774.47;2082148;28;20875;-72
2023/08/31 02:18:16;;;;;;;1.38;1.00;;;;;;;17.83;86.21;99770.63;2082217;28;20034;-73
2023/08/31 02:19:22;;;;;;;2.17;1.27;;;;;;;17.83;86.28;99765.97;2082167;28;20038;-72
2023/08/31 02:20:26;;;;;;;1.98;1.10;;;;;;;17.83;86.26;99771.41;2074765;28;20038;-73
2023/08/31 02:21:28;;;;;;;2.50;1.15;;;;;;;17.85;86.25;99778.44;2073900;28;20038;-73
2023/08/31 02:22:32;;;;;;;1.60;0.90;;;;;;;17.85;86.26;99767.56;2066314;28;21065;-73
2023/08/31 02:23:34;;;;;;;3.70;1.20;;;;;;;17.85;86.27;99776.50;2065920;28;20086;-73
2023/08/31 02:24:39;;;;;;;1.10;1.00;;;;;;;17.85;86.22;99768.34;2075491;28;21343;-73
2023/08/31 02:25:49;;;;;;;2.00;1.08;;;;;;;17.83;86.28;99765.97;2081988;28;20045;-72
2023/08/31 02:26:53;;;;;;;1.83;1.23;;;;;;;17.82;86.17;99772.53;2072530;28;20177;-72
2023/08/31 02:27:58;;;;;;;2.80;1.40;;;;;;;17.81;86.37;99762.81;2066662;28;20854;-73
2023/08/31 02:29:07;;;;;;;2.63;1.08;;;;;;;17.80;86.34;99761.22;2082046;28;20034;-72
2023/08/31 02:30:10;;;;;;;5.47;1.70;;;;;;;17.80;86.48;99766.66;2074109;28;20762;-72
2023/08/31 02:31:13;;;;;;;2.28;1.08;;;;;;;17.79;86.48;99758.84;2073465;28;20026;-72
2023/08/31 02:32:20;;;;;;;1.25;0.80;;;;;;;17.78;86.45;99763.50;2082234;28;20030;-73
2023/08/31 02:33:23;;;;;;;1.58;1.10;;;;;;;17.77;86.61;99766.56;2081978;28;20041;-72
2023/08/31 02:34:29;;;;;;;1.80;1.30;;;;;;;17.77;86.53;99756.47;2074406;28;20034;-72
2023/08/31 02:35:33;;;;;;;2.03;0.60;;;;;;;17.77;86.55;99755.69;2082157;28;20029;-72
2023/08/31 02:36:35;;;;;;;1.48;0.90;;;;;;;17.77;86.48;99759.19;2081852;28;20151;-72
2023/08/31 02:37:41;;;;;;;1.42;1.00;;;;;;;17.79;86.60;99765.09;2074103;28;20738;-73
2023/08/31 02:38:43;;;;;;;0.85;0.65;;;;;;;17.78;86.47;99763.50;2058181;28;20035;-72
2023/08/31 02:39:46;;;;;;;0.93;0.63;;;;;;;17.79;86.39;99759.63;2057763;28;20934;-73
2023/08/31 02:40:48;;;;;;;1.73;0.90;;;;;;;17.78;86.45;99752.63;2066067;28;20925;-73
2023/08/31 02:41:50;;;;;;;0.98;0.70;;;;;;;17.79;86.49;99758.84;2065785;28;20045;-73
2023/08/31 02:42:57;;;;;;;2.78;1.20;;;;;;;17.77;86.50;99756.47;2082178;28;20041;-73
2023/08/31 02:44:01;;;;;;;0.82;0.68;;;;;;;17.78;86.65;99759.97;2081806;28;20152;-73
2023/08/31 02:45:05;;;;;;;1.30;0.70;;;;;;;17.77;86.56;99753.75;2065960;28;20071;-73
2023/08/31 02:46:07;;;;;;;4.00;0.90;;;;;;;17.77;86.57;99761.91;2058238;28;20051;-72
2023/08/31 02:47:08;;;;;;;1.13;0.70;;;;;;;17.78;86.33;99762.69;2057511;28;20141;-73
2023/08/31 02:48:12;;;;;;;1.33;0.90;;;;;;;17.77;86.39;99764.63;2057811;28;20131;-73
2023/08/31 02:49:16;;;;;;;1.00;0.65;;;;;;;17.77;86.40;99761.91;2074791;28;20975;-72
2023/08/31 02:50:19;;;;;;;2.20;0.70;;;;;;;17.75;86.48;99764.16;2073703;28;20035;-72
2023/08/31 02:51:20;;;;;;;2.13;1.10;;;;;;;17.75;86.44;99763.38;2064727;28;20141;-72
2023/08/31 02:52:22;;;;;;;1.05;0.65;;;;;;;17.74;86.47;99765.28;2065508;28;20041;-73
2023/08/31 02:53:23;;;;;;;1.27;0.70;;;;;;;17.71;86.59;99763.25;2057670;28;20114;-73
2023/08/31 02:54:28;;;;;;;1.63;0.90;;;;;;;17.73;86.50;99763.72;2065958;28;20154;-73
2023/08/31 02:55:36;;;;;;;1.23;0.50;;;;;;;17.73;86.55;99765.66;2065350;28;20137;-73
2023/08/31 02:56:42;;;;;;;0.90;0.60;;;;;;;17.71;86.48;99768.69;2058395;28;20051;-73
2023/08/31 02:57:44;;;;;;;1.20;0.60;;;;;;;17.70;86.59;99764.41;2074870;28;20046;-73
2023/08/31 02:58:49;;;;;;;2.70;0.60;;;;;;;17.69;86.47;99771.00;2073455;28;20151;-74
2023/08/31 02:59:54;;;;;;;0.55;0.50;;;;;;;17.69;86.48;99768.25;2067385;28;20188;-74
2023/08/31 03:00:57;;;;;;;2.10;0.80;;;;;;;17.69;86.61;99771.00;2081887;28;20156;-74
2023/08/31 03:01:59;;;;;;;0.88;0.50;;;;;;;17.68;86.54;99769.38;2090374;28;20044;-74
2023/08/31 03:03:01;;;;;;;0.60;0.57;;;;;;;17.69;86.47;99776.41;2073352;28;20050;-72
2023/08/31 03:04:08;;;;;;;4.22;0.70;;;;;;;17.69;86.61;99773.69;2066163;28;20038;-73
2023/08/31 03:05:11;;;;;;;1.90;0.68;;;;;;;17.69;86.63;99772.91;2066504;28;20874;-73
2023/08/31 03:06:13;;;;;;;1.85;1.08;;;;;;;17.69;86.55;99772.91;2057836;28;20042;-73
2023/08/31 03:07:18;;;;;;;2.17;0.77;;;;;;;17.68;86.49;99774.03;2065693;28;20130;-73
2023/08/31 03:08:22;;;;;;;1.08;0.75;;;;;;;17.68;86.61;99780.25;2084752;28;20036;-74
2023/08/31 03:09:24;;;;;;;0.50;0.50;;;;;;;17.69;86.59;99789.22;2081272;28;20787;-74
2023/08/31 03:10:28;;;;;;;2.28;0.80;;;;;;;17.68;86.68;99780.25;2057867;28;20036;-74
2023/08/31 03:11:35;;;;;;;0.60;0.60;;;;;;;17.68;86.46;99791.13;2075564;28;20038;-73
2023/08/31 03:12:38;;;;;;;1.67;0.98;;;;;;;17.67;86.61;99778.69;2081841;28;20057;-73
2023/08/31 03:13:41;;;;;;;1.17;0.50;;;;;;;17.67;86.57;99786.06;2073929;28;20157;-73
2023/08/31 03:14:42;;;;;;;1.17;1.02;;;;;;;17.64;86.57;99784.81;2073747;28;20963;-73
2023/08/31 03:15:44;;;;;;;1.75;0.70;;;;;;;17.64;86.62;99784.81;2074070;28;20037;-73
2023/08/31 03:16:46;;;;;;;1.38;0.70;;;;;;;17.63;86.65;99785.16;2082243;28;20036;-73
2023/08/31 03:17:48;;;;;;;3.85;1.10;;;;;;;17.63;86.58;99788.66;2073438;28;20144;-73
2023/08/31 03:18:51;;;;;;;1.42;1.05;;;;;;;17.63;86.70;99783.25;2057817;28;20039;-73
2023/08/31 03:19:55;;;;;;;0.93;0.73;;;;;;;17.64;86.54;99784.81;2074169;28;20041;-74
2023/08/31 03:20:56;;;;;;;0.70;0.70;;;;;;;17.63;86.55;99782.44;2073433;28;20085;-74
2023/08/31 03:21:59;;;;;;;2.42;1.10;;;;;;;17.64;86.69;99782.09;2073552;28;20743;-73
2023/08/31 03:23:05;;;;;;;2.28;0.93;;;;;;;17.64;86.89;99779.38;2065740;28;20035;-74
2023/08/31 03:24:07;;;;;;;1.25;0.95;;;;;;;17.66;86.63;99787.19;2073394;28;20038;-74
2023/08/31 03:25:08;;;;;;;3.60;1.60;;;;;;;17.65;86.57;99782.88;2073790;28;20141;-74
2023/08/31 03:26:12;;;;;;;1.38;1.02;;;;;;;17.65;86.72;99785.59;2081562;28;20780;-73
2023/08/31 03:27:15;;;;;;;0.63;0.60;;;;;;;17.64;86.65;99787.53;2073862;28;20034;-74
2023/08/31 03:28:17;;;;;;;1.27;0.65;;;;;;;17.63;86.56;99785.97;2066133;28;20063;-73
2023/08/31 03:29:18;;;;;;;1.15;0.68;;;;;;;17.64;86.72;99784.03;2065718;28;20056;-73
2023/08/31 03:30:20;;;;;;;1.25;0.73;;;;;;;17.63;86.68;99788.66;2073832;28;20220;-74
2023/08/31 03:31:22;;;;;;;1.65;0.80;;;;;;;17.62;86.68;99787.06;2089878;28;20065;-74
2023/08/31 03:32:24;;;;;;;1.48;0.77;;;;;;;17.61;86.55;99794.44;2081959;28;20034;-74
2023/08/31 03:33:27;;;;;;;3.20;0.60;;;;;;;17.62;86.74;99789.78;2073564;28;20034;-74
2023/08/31 03:34:31;;;;;;;1.60;0.90;;;;;;;17.62;86.65;99784.34;2081949;28;20135;-74
2023/08/31 03:35:34;;;;;;;0.70;0.70;;;;;;;17.63;86.74;99796.81;2089994;28;20144;-74
2023/08/31 03:36:36;;;;;;;0.75;0.68;;;;;;;17.63;86.74;99794.13;2081579;28;20042;-73
2023/08/31 03:37:43;;;;;;;1.88;0.90;;;;;;;17.62;87.01;99787.06;2074893;28;20034;-74
2023/08/31 03:38:44;;;;;;;0.65;0.60;;;;;;;17.60;86.81;99794.78;2081710;28;20034;-73
2023/08/31 03:39:48;;;;;;;1.10;0.90;;;;;;;17.61;86.71;99790.94;2082131;28;20141;-74
2023/08/31 03:41:09;;;;;;;0.80;0.65;;;;;;;17.61;86.79;99788.22;2081630;28;20030;-74
2023/08/31 03:42:11;;;;;;;2.08;0.80;;;;;;;17.60;86.78;99792.88;2077876;28;20035;-74
2023/08/31 03:43:13;;;;;;;1.15;0.80;;;;;;;17.62;86.62;99797.94;2073978;28;20161;-74
2023/08/31 03:44:17;;;;;;;1.08;0.90;;;;;;;17.62;86.66;99792.50;2073174;28;20039;-74
2023/08/31 03:45:19;;;;;;;0.70;0.60;;;;;;;17.62;86.55;99789.78;2074009;28;20045;-74
2023/08/31 03:46:21;;;;;;;1.52;0.60;;;;;;;17.61;86.64;99791.72;2073293;28;20034;-73
2023/08/31 03:47:28;;;;;;;1.38;0.80;;;;;;;17.61;86.64;99796.38;2065446;28;20785;-74
2023/08/31 03:48:33;;;;;;;3.40;0.80;;;;;;;17.57;86.63;99788.13;2082430;28;20145;-73
2023/08/31 03:49:35;;;;;;;1.05;0.60;;;;;;;17.59;86.54;99798.63;2081333;28;20030;-73
2023/08/31 03:50:37;;;;;;;0.60;0.50;;;;;;;17.57;86.50;99796.28;2065350;28;20094;-73
2023/08/31 03:51:46;;;;;;;0.80;0.60;;;;;;;17.59;86.66;99806.78;2081455;28;20034;-73
2023/08/31 03:52:52;;;;;;;0.40;0.40;;;;;;;17.59;86.57;99793.19;2074019;28;20081;-73
2023/08/31 03:53:56;;;;;;;0.50;0.50;;;;;;;17.59;86.35;99794.00;2082597;28;20045;-73
2023/08/31 03:55:01;;;;;;;1.67;0.40;;;;;;;17.60;86.40;99802.94;2088396;28;20927;-72
2023/08/31 03:56:04;;;;;;;0.93;0.60;;;;;;;17.61;86.35;99804.53;2081117;28;20041;-72
2023/08/31 03:57:06;;;;;;;1.92;0.93;;;;;;;17.59;86.36;99799.44;2080050;28;20040;-73
2023/08/31 03:58:11;;;;;;;0.70;0.70;;;;;;;17.59;86.30;99798.63;2072925;28;20917;-73
2023/08/31 03:59:12;;;;;;;2.30;0.85;;;;;;;17.58;86.22;99799.78;2064144;28;20027;-73
2023/08/31 04:00:17;;;;;;;0.68;0.40;;;;;;;17.56;86.30;99797.41;2057199;28;20035;-73
2023/08/31 04:01:23;;;;;;;1.02;0.40;;;;;;;17.56;86.19;99800.13;2072419;28;20038;-73
2023/08/31 04:02:27;;;;;;;0.80;0.40;;;;;;;17.55;86.22;99795.03;2089242;28;20037;-73
2023/08/31 04:03:34;;;;;;;1.73;0.60;;;;;;;17.53;86.16;99800.81;2079559;28;20033;-73
2023/08/31 04:04:39;;;;;;;0.68;0.52;;;;;;;17.54;86.14;99801.59;2075002;28;20145;-73
2023/08/31 04:05:42;;;;;;;0.57;0.57;;;;;;;17.53;86.16;99800.03;2080090;28;20904;-73
2023/08/31 04:06:46;;;;;;;0.47;0.40;;;;;;;17.51;86.19;99803.06;2048787;28;20036;-73
2023/08/31 04:07:48;;;;;;;2.33;0.60;;;;;;;17.51;86.34;99802.28;2048767;28;20095;-73
2023/08/31 04:08:56;;;;;;;1.77;0.50;;;;;;;17.49;86.33;99801.84;2078249;28;20765;-73
2023/08/31 04:09:57;;;;;;;0.43;0.43;;;;;;;17.49;86.20;99801.84;2080258;28;20063;-73
2023/08/31 04:10:59;;;;;;;0.63;0.50;;;;;;;17.48;86.13;99803.75;2081228;28;20034;-73
2023/08/31 04:12:00;;;;;;;1.20;0.57;;;;;;;17.48;85.91;99797.53;2081350;28;20064;-73
2023/08/31 04:13:09;;;;;;;1.08;0.98;;;;;;;17.49;86.04;99804.56;2082224;28;20200;-73
2023/08/31 04:14:11;;;;;;;4.22;2.92;;;;;;;17.48;85.89;99803.75;2080900;28;20030;-73
2023/08/31 04:15:13;;;;;;;1.98;1.10;;;;;;;17.48;86.12;99802.97;2081445;28;20152;-73
2023/08/31 04:16:15;;;;;;;1.00;0.90;;;;;;;17.47;86.05;99802.19;2072692;28;20039;-73
2023/08/31 04:17:20;;;;;;;0.93;0.60;;;;;;;17.47;86.04;99807.63;2065824;28;20873;-73
2023/08/31 04:18:25;;;;;;;0.77;0.70;;;;;;;17.45;86.10;99804.44;2064765;28;20238;-73
2023/08/31 04:19:28;;;;;;;1.52;1.00;;;;;;;17.46;86.07;99799.81;2066506;28;20023;-73
2023/08/31 04:20:29;;;;;;;3.80;0.80;;;;;;;17.45;85.97;99803.66;2081237;28;20085;-73
2023/08/31 04:21:33;;;;;;;0.52;0.40;;;;;;;17.44;86.05;99800.16;2081128;28;20026;-73
2023/08/31 04:22:36;;;;;;;1.67;0.70;;;;;;;17.43;86.12;99804.00;2080448;28;20885;-73
2023/08/31 04:23:40;;;;;;;0.50;0.50;;;;;;;17.44;86.09;99804.81;2065382;28;20045;-73
2023/08/31 04:24:44;;;;;;;1.08;0.70;;;;;;;17.42;85.86;99799.69;2064875;28;20129;-73
2023/08/31 04:25:51;;;;;;;0.70;0.50;;;;;;;17.43;85.96;99811.34;2081439;28;20045;-73
2023/08/31 04:26:52;;;;;;;2.30;0.82;;;;;;;17.41;86.09;99802.78;2081277;28;20152;-71
2023/08/31 04:27:57;;;;;;;0.77;0.70;;;;;;;17.42;85.94;99805.13;2065597;28;20038;-73
2023/08/31 04:29:05;;;;;;;1.95;0.60;;;;;;;17.42;86.06;99809.78;2082765;28;20168;-73
2023/08/31 04:30:08;;;;;;;1.25;0.70;;;;;;;17.41;86.06;99808.22;2089133;28;20998;-71
2023/08/31 04:31:10;;;;;;;2.03;0.73;;;;;;;17.41;86.09;99813.66;2065164;28;20846;-73
2023/08/31 04:32:11;;;;;;;2.20;0.98;;;;;;;17.41;86.05;99813.66;2073653;28;20061;-72
2023/08/31 04:33:16;;;;;;;2.13;1.10;;;;;;;17.40;85.99;99812.81;2082165;28;20877;-72
2023/08/31 04:34:20;;;;;;;2.03;0.70;;;;;;;17.40;86.05;99806.59;2081260;28;20144;-70
2023/08/31 04:35:24;;;;;;;1.38;0.70;;;;;;;17.38;86.19;99810.47;2073767;28;20061;-72
2023/08/31 04:36:25;;;;;;;0.98;0.57;;;;;;;17.37;86.00;99808.09;2065241;28;20160;-72
2023/08/31 04:37:29;;;;;;;1.42;0.70;;;;;;;17.37;86.09;99813.53;2074183;28;20030;-72
2023/08/31 04:38:34;;;;;;;0.77;0.57;;;;;;;17.37;86.10;99814.31;2089666;28;20033;-72
2023/08/31 04:39:36;;;;;;;0.65;0.57;;;;;;;17.38;86.10;99809.69;2089817;28;20077;-72
2023/08/31 04:40:37;;;;;;;1.65;0.50;;;;;;;17.37;86.04;99810.81;2073052;28;20037;-72
2023/08/31 04:41:41;;;;;;;2.22;0.73;;;;;;;17.37;86.14;99814.31;2081528;28;20080;-72
2023/08/31 04:42:42;;;;;;;0.68;0.68;;;;;;;17.38;86.11;99810.47;2081041;28;20845;-72
2023/08/31 04:43:44;;;;;;;2.15;0.50;;;;;;;17.38;86.15;99815.13;2081393;28;20038;-72
2023/08/31 04:44:46;;;;;;;1.27;0.60;;;;;;;17.40;86.06;99817.47;2073442;28;20026;-72
2023/08/31 04:45:51;;;;;;;1.13;0.60;;;;;;;17.40;86.08;99817.47;2073031;28;22081;-73
2023/08/31 04:46:54;;;;;;;1.38;0.65;;;;;;;17.38;86.10;99817.81;2073635;28;20042;-73
2023/08/31 04:47:59;;;;;;;1.83;0.60;;;;;;;17.39;86.17;99816.69;2081660;28;20030;-72
2023/08/31 04:49:01;;;;;;;2.30;0.60;;;;;;;17.40;86.20;99818.25;2081968;28;20037;-72
2023/08/31 04:50:06;;;;;;;1.98;0.70;;;;;;;17.38;86.20;99826.78;2081403;28;20041;-72
2023/08/31 04:51:26;;;;;;;0.60;0.60;;;;;;;17.37;86.22;99825.19;2081312;28;20117;-72
2023/08/31 04:52:28;;;;;;;1.63;0.52;;;;;;;17.37;86.34;99816.25;2073994;28;20038;-71
2023/08/31 04:53:30;;;;;;;1.50;0.70;;;;;;;17.36;86.30;99829.03;2072875;28;20906;-72
2023/08/31 04:54:37;;;;;;;0.82;0.68;;;;;;;17.36;86.30;99823.59;2074998;28;20035;-71
2023/08/31 04:55:39;;;;;;;0.75;0.47;;;;;;;17.36;86.19;99823.59;2073917;28;20053;-72
2023/08/31 04:56:41;;;;;;;0.60;0.60;;;;;;;17.34;86.20;99827.81;2066007;28;20039;-73
2023/08/31 04:57:45;;;;;;;1.02;0.60;;;;;;;17.34;86.13;99819.66;2074477;28;20034;-73
2023/08/31 04:58:47;;;;;;;1.30;0.60;;;;;;;17.33;86.13;99827.00;2074565;28;20952;-74
2023/08/31 04:59:51;;;;;;;0.93;0.50;;;;;;;17.34;86.09;99827.81;2074462;28;20030;-72
2023/08/31 05:00:53;;;;;;;0.50;0.50;;;;;;;17.32;86.15;99828.13;2074393;28;20030;-70
2023/08/31 05:01:57;;;;;;;0.75;0.57;;;;;;;17.31;86.03;99832.00;2066395;28;20042;-70
2023/08/31 05:03:03;;;;;;;1.02;0.60;;;;;;;17.30;86.03;99833.09;2090997;28;20037;-73
2023/08/31 05:04:09;;;;;;;1.70;1.00;;;;;;;17.30;85.98;99827.66;2089637;28;20262;-73